Time;durP1;ratioP1;P1;durP2;ratioP2;P2;SDS_P1;SDS_P2;PMS_P1;PMS_P2;Temp;Humidity;BMP_temperature;BMP_pressure;BME280_temperature;BME280_humidity;BME280_pressure;Samples;Min_cycle;Max_cycle;Signal;HPM_P1;HPM_P2
2021/05/30 00:00:27;;;;;;;7.13;4.90;;;;;11.70;100735.00;;;;5046572;28;20101;-72
2021/05/30 00:02:54;;;;;;;11.75;6.07;;;;;11.60;100746.00;;;;5046885;28;20646;-74
2021/05/30 00:05:20;;;;;;;7.50;4.13;;;;;11.50;100748.00;;;;5045807;28;20112;-73
2021/05/30 00:07:47;;;;;;;10.63;3.90;;;;;11.50;100762.00;;;;5045369;28;20028;-72
2021/05/30 00:10:14;;;;;;;8.38;4.15;;;;;11.40;100761.00;;;;5045342;28;20052;-71
2021/05/30 00:12:41;;;;;;;4.63;3.20;;;;;11.40;100766.00;;;;5043873;28;20035;-72
2021/05/30 00:15:12;;;;;;;3.92;2.90;;;;;11.30;100773.00;;;;5045792;28;20060;-72
2021/05/30 00:17:39;;;;;;;4.25;2.85;;;;;11.20;100758.00;;;;5046323;28;20037;-72
2021/05/30 00:20:10;;;;;;;4.32;2.78;;;;;11.10;100757.00;;;;5045909;28;20037;-74
2021/05/30 00:22:37;;;;;;;5.90;2.65;;;;;11.10;100767.00;;;;5046442;28;20029;-72
2021/05/30 00:25:05;;;;;;;4.20;2.92;;;;;11.10;100777.00;;;;5045601;28;20079;-72
2021/05/30 00:27:32;;;;;;;5.93;3.50;;;;;11.10;100795.00;;;;5045547;28;20585;-72
2021/05/30 00:30:00;;;;;;;4.15;3.25;;;;;11.00;100799.00;;;;5045342;28;20063;-72
2021/05/30 00:32:26;;;;;;;5.15;2.63;;;;;11.00;100786.00;;;;5045968;28;20393;-72
2021/05/30 00:34:55;;;;;;;6.20;2.97;;;;;11.00;100777.00;;;;5045799;28;20029;-72
2021/05/30 00:37:21;;;;;;;4.35;2.95;;;;;11.00;100800.00;;;;5044927;28;20041;-73
2021/05/30 00:39:48;;;;;;;3.80;2.63;;;;;10.90;100796.00;;;;5045741;28;20025;-72
2021/05/30 00:42:15;;;;;;;4.30;3.20;;;;;10.90;100803.00;;;;5045716;28;20060;-72
2021/05/30 00:44:41;;;;;;;10.00;2.88;;;;;10.90;100804.00;;;;5045012;28;20802;-73
2021/05/30 00:47:09;;;;;;;5.15;2.70;;;;;11.00;100793.00;;;;5045421;28;20025;-74
2021/05/30 00:49:36;;;;;;;8.93;3.00;;;;;10.90;100811.00;;;;5045137;28;20031;-71
2021/05/30 00:52:05;;;;;;;15.77;12.65;;;;;10.90;100811.00;;;;5045745;28;20033;-73
2021/05/30 00:54:33;;;;;;;15.07;10.90;;;;;10.80;100819.00;;;;5044476;28;20604;-71
2021/05/30 00:56:59;;;;;;;14.50;10.73;;;;;10.80;100813.00;;;;5044698;28;20033;-74
2021/05/30 00:59:26;;;;;;;11.55;9.82;;;;;10.80;100815.00;;;;5046195;28;20039;-73
2021/05/30 01:01:52;;;;;;;9.50;8.05;;;;;10.80;100805.00;;;;5044532;28;20028;-73
2021/05/30 01:04:19;;;;;;;9.50;7.90;;;;;10.90;100802.00;;;;5045468;28;20033;-72
2021/05/30 01:06:46;;;;;;;11.20;6.80;;;;;10.90;100824.00;;;;5045032;28;20025;-73
2021/05/30 01:09:12;;;;;;;9.13;6.30;;;;;10.90;100839.00;;;;5045902;28;20504;-71
2021/05/30 01:11:39;;;;;;;24.58;13.80;;;;;10.80;100827.00;;;;5045331;28;20051;-73
2021/05/30 01:14:08;;;;;;;10.50;8.10;;;;;10.70;100827.00;;;;5045293;28;20028;-72
2021/05/30 01:16:34;;;;;;;15.70;9.07;;;;;10.60;100848.00;;;;5044184;28;20033;-72
2021/05/30 01:19:05;;;;;;;14.07;8.35;;;;;10.70;100847.00;;;;5045136;28;20545;-73
2021/05/30 01:21:31;;;;;;;24.92;16.05;;;;;10.70;100837.00;;;;5044160;28;20393;-73
2021/05/30 01:23:58;;;;;;;17.95;11.55;;;;;10.60;100836.00;;;;5044290;28;20021;-74
2021/05/30 01:26:25;;;;;;;26.58;16.60;;;;;10.60;100835.00;;;;5044193;28;20053;-73
2021/05/30 01:28:52;;;;;;;16.67;10.13;;;;;10.50;100834.00;;;;5044547;28;20037;-72
2021/05/30 01:31:20;;;;;;;16.05;9.18;;;;;10.50;100822.00;;;;5044484;28;20032;-73
2021/05/30 01:33:47;;;;;;;11.32;6.50;;;;;10.50;100833.00;;;;5044628;28;20036;-72
2021/05/30 01:36:14;;;;;;;7.57;4.68;;;;;10.50;100852.00;;;;5044644;28;20400;-73
2021/05/30 01:38:40;;;;;;;9.18;5.10;;;;;10.40;100831.00;;;;5044976;28;20017;-71
2021/05/30 01:41:07;;;;;;;6.88;3.85;;;;;10.50;100859.00;;;;5044186;28;20082;-73
2021/05/30 01:43:34;;;;;;;9.30;3.97;;;;;10.50;100850.00;;;;5044253;28;20032;-72
2021/05/30 01:46:01;;;;;;;6.97;3.90;;;;;10.60;100862.00;;;;5044477;28;20135;-73
2021/05/30 01:48:28;;;;;;;8.38;3.63;;;;;10.60;100856.00;;;;5043783;28;20036;-72
2021/05/30 01:50:55;;;;;;;6.75;3.67;;;;;10.60;100846.00;;;;5043829;28;20475;-73
2021/05/30 01:53:32;;;;;;;5.70;3.50;;;;;10.60;100861.00;;;;5044296;28;20502;-71
2021/05/30 01:58:26;;;;;;;4.60;3.30;;;;;10.70;100864.00;;;;5043721;28;20091;-73
2021/05/30 02:00:52;;;;;;;5.80;3.28;;;;;10.80;100889.00;;;;5044632;28;20060;-72
2021/05/30 02:03:19;;;;;;;6.40;2.90;;;;;10.80;100882.00;;;;5044659;28;20086;-73
2021/05/30 02:05:51;;;;;;;4.93;2.85;;;;;10.90;100895.00;;;;5043891;28;20492;-71
2021/05/30 02:08:18;;;;;;;6.45;2.85;;;;;11.00;100908.00;;;;5043855;28;20506;-72
2021/05/30 02:10:45;;;;;;;8.25;2.60;;;;;11.10;100880.00;;;;5044250;28;20029;-73
2021/05/30 02:13:12;;;;;;;12.65;3.05;;;;;11.10;100908.00;;;;5043830;28;20035;-73
2021/05/30 02:15:39;;;;;;;4.75;2.72;;;;;11.10;100887.00;;;;5044254;28;20028;-73
2021/05/30 02:18:06;;;;;;;7.00;2.72;;;;;11.10;100902.00;;;;5043932;28;20036;-74
2021/05/30 02:20:36;;;;;;;7.28;2.65;;;;;11.10;100916.00;;;;5043658;28;20087;-73
2021/05/30 02:23:04;;;;;;;4.28;2.53;;;;;11.00;100902.00;;;;5043743;28;20029;-72
2021/05/30 02:25:31;;;;;;;7.47;2.78;;;;;10.90;100915.00;;;;5043459;28;20083;-73
2021/05/30 02:27:58;;;;;;;7.63;2.50;;;;;10.90;100930.00;;;;5044334;28;20051;-72
2021/05/30 02:30:25;;;;;;;7.57;2.72;;;;;10.90;100916.00;;;;5044045;28;20071;-73
2021/05/30 02:32:51;;;;;;;6.18;2.40;;;;;11.00;100920.00;;;;5043900;28;20036;-71
2021/05/30 02:35:18;;;;;;;9.30;2.85;;;;;10.90;100931.00;;;;5043431;28;20089;-73
2021/05/30 02:37:45;;;;;;;4.55;2.50;;;;;10.90;100940.00;;;;5043558;28;20411;-72
2021/05/30 02:40:13;;;;;;;8.57;2.42;;;;;11.00;100939.00;;;;5043915;28;20025;-72
2021/05/30 02:42:39;;;;;;;7.30;2.20;;;;;11.00;100944.00;;;;5044102;28;20017;-72
2021/05/30 02:45:08;;;;;;;4.32;2.33;;;;;11.00;100948.00;;;;5043353;28;20033;-74
2021/05/30 02:47:34;;;;;;;5.78;2.40;;;;;11.00;100942.00;;;;5043819;28;20029;-72
2021/05/30 02:50:02;;;;;;;6.75;2.50;;;;;11.00;100931.00;;;;5045086;28;20104;-73
2021/05/30 02:52:28;;;;;;;7.22;2.50;;;;;11.00;100947.00;;;;5042927;28;20075;-71
2021/05/30 02:54:55;;;;;;;3.25;2.28;;;;;11.00;100959.00;;;;5043557;28;20025;-71
2021/05/30 02:57:21;;;;;;;7.10;2.20;;;;;11.00;100956.00;;;;5043765;28;20032;-72
2021/05/30 02:59:49;;;;;;;6.60;2.40;;;;;11.00;100951.00;;;;5046435;28;20029;-71
2021/05/30 03:02:16;;;;;;;5.15;2.50;;;;;11.00;100965.00;;;;5047268;28;20044;-73
2021/05/30 03:04:42;;;;;;;6.93;2.33;;;;;11.00;100954.00;;;;5046626;28;20029;-74
2021/05/30 03:07:09;;;;;;;4.90;2.10;;;;;10.90;100969.00;;;;5047462;28;20025;-73
2021/05/30 03:09:38;;;;;;;3.08;2.50;;;;;10.90;100979.00;;;;5047042;28;20033;-72
2021/05/30 03:12:05;;;;;;;7.82;2.67;;;;;10.90;100974.00;;;;5046800;28;20025;-71
2021/05/30 03:14:32;;;;;;;5.93;2.33;;;;;10.80;100962.00;;;;5046924;28;20036;-73
2021/05/30 03:16:58;;;;;;;5.38;2.70;;;;;10.80;100967.00;;;;5047291;28;20111;-73
2021/05/30 03:19:25;;;;;;;5.30;2.10;;;;;10.80;100975.00;;;;5046655;28;20138;-71
2021/05/30 03:21:51;;;;;;;6.10;2.83;;;;;10.70;100962.00;;;;5047281;28;20135;-73
2021/05/30 03:24:18;;;;;;;6.15;3.13;;;;;10.60;100974.00;;;;5047608;28;20033;-73
2021/05/30 03:26:45;;;;;;;8.15;3.03;;;;;10.60;100974.00;;;;5041540;28;20054;-73
2021/05/30 03:29:11;;;;;;;7.82;2.80;;;;;10.60;100975.00;;;;5027022;28;20045;-71
2021/05/30 03:31:38;;;;;;;8.00;3.28;;;;;10.50;100957.00;;;;5026347;28;20079;-74
2021/05/30 03:34:04;;;;;;;9.23;3.78;;;;;10.60;100965.00;;;;5027062;28;20040;-73
2021/05/30 03:36:33;;;;;;;7.28;3.80;;;;;10.60;100965.00;;;;5027003;28;20037;-73
2021/05/30 03:39:02;;;;;;;7.10;4.10;;;;;10.60;100984.00;;;;5026571;28;20040;-72
2021/05/30 03:41:35;;;;;;;8.63;4.65;;;;;10.70;100975.00;;;;5026852;28;20727;-74
2021/05/30 03:44:04;;;;;;;11.70;7.03;;;;;10.70;100985.00;;;;5026705;28;20459;-72
2021/05/30 03:46:31;;;;;;;16.00;5.45;;;;;10.70;100988.00;;;;5026904;28;20029;-73
2021/05/30 03:48:57;;;;;;;14.40;6.43;;;;;10.70;100997.00;;;;5027008;28;20079;-72
2021/05/30 03:51:24;;;;;;;13.35;5.57;;;;;10.70;100972.00;;;;5026954;28;20034;-74
2021/05/30 03:53:51;;;;;;;12.35;6.55;;;;;10.70;100989.00;;;;5026729;28;20534;-72
2021/05/30 03:56:18;;;;;;;11.45;6.90;;;;;10.60;100994.00;;;;5026460;28;20530;-71
2021/05/30 03:58:44;;;;;;;14.02;7.20;;;;;10.60;101013.00;;;;5026817;28;20136;-73
2021/05/30 04:01:11;;;;;;;15.02;7.53;;;;;10.50;100999.00;;;;5025945;28;20079;-71
2021/05/30 04:03:37;;;;;;;10.90;7.63;;;;;10.50;101000.00;;;;5025997;28;20489;-72
2021/05/30 04:06:04;;;;;;;12.82;7.43;;;;;10.50;100996.00;;;;5026444;28;20752;-73
2021/05/30 04:08:31;;;;;;;14.18;8.15;;;;;10.60;101012.00;;;;5026369;28;20051;-73
2021/05/30 04:10:57;;;;;;;15.52;7.28;;;;;10.60;101025.00;;;;5025928;28;20021;-71
2021/05/30 04:13:24;;;;;;;13.75;7.32;;;;;10.50;101002.00;;;;5026476;28;20033;-73
2021/05/30 04:15:50;;;;;;;10.38;6.75;;;;;10.40;101020.00;;;;5026255;28;20099;-71
2021/05/30 04:18:21;;;;;;;9.10;6.25;;;;;10.30;101011.00;;;;5026273;28;20071;-73
2021/05/30 04:20:47;;;;;;;12.63;6.47;;;;;10.20;101011.00;;;;5025590;28;20031;-72
2021/05/30 04:23:14;;;;;;;14.82;7.53;;;;;10.20;101007.00;;;;5025089;28;20068;-73
2021/05/30 04:25:41;;;;;;;13.55;6.75;;;;;10.20;101017.00;;;;5027247;28;20049;-73
2021/05/30 04:28:08;;;;;;;10.68;6.60;;;;;10.10;101029.00;;;;5045341;28;20420;-73
2021/05/30 04:30:34;;;;;;;11.60;6.72;;;;;10.00;100989.00;;;;5045320;28;20052;-73
2021/05/30 04:33:01;;;;;;;15.60;6.10;;;;;10.00;101028.00;;;;5045406;28;20071;-73
2021/05/30 04:35:27;;;;;;;10.23;5.78;;;;;10.00;101044.00;;;;5044395;28;20075;-71
2021/05/30 04:37:54;;;;;;;9.50;5.43;;;;;10.00;101034.00;;;;5046024;28;20067;-74
2021/05/30 04:40:23;;;;;;;13.73;5.50;;;;;10.00;101031.00;;;;5045429;28;20068;-73
2021/05/30 04:42:51;;;;;;;7.53;4.53;;;;;10.00;101028.00;;;;5044227;28;20049;-73
2021/05/30 04:45:18;;;;;;;9.32;4.95;;;;;10.00;101045.00;;;;5045641;28;20025;-73
2021/05/30 04:47:45;;;;;;;8.30;4.78;;;;;9.90;101058.00;;;;5045180;28;21008;-71
2021/05/30 04:50:13;;;;;;;9.02;4.40;;;;;9.90;101043.00;;;;5045219;28;20037;-73
2021/05/30 04:52:40;;;;;;;6.03;3.92;;;;;9.80;101052.00;;;;5045515;28;20082;-72
2021/05/30 04:55:10;;;;;;;9.80;3.85;;;;;9.70;101030.00;;;;5044971;28;20678;-72
2021/05/30 04:57:38;;;;;;;8.73;4.10;;;;;9.70;101054.00;;;;5045187;28;20029;-73
2021/05/30 05:00:07;;;;;;;4.18;3.05;;;;;9.60;101036.00;;;;5044795;28;20470;-72
2021/05/30 05:02:33;;;;;;;7.53;3.25;;;;;9.60;101048.00;;;;5044572;28;20028;-72
2021/05/30 05:05:00;;;;;;;3.88;2.33;;;;;9.50;101032.00;;;;5044774;28;20555;-73
2021/05/30 05:07:29;;;;;;;7.65;2.78;;;;;9.40;101035.00;;;;5045175;28;20031;-73
2021/05/30 05:09:56;;;;;;;6.85;3.30;;;;;9.40;101046.00;;;;5044853;28;20017;-74
2021/05/30 05:12:22;;;;;;;5.28;2.92;;;;;9.30;101025.00;;;;5044896;28;20032;-73
2021/05/30 05:14:49;;;;;;;11.23;3.00;;;;;9.20;101024.00;;;;5044452;28;20021;-72
2021/05/30 05:17:15;;;;;;;10.35;3.17;;;;;9.10;101038.00;;;;5044721;28;20510;-73
2021/05/30 05:19:42;;;;;;;4.32;2.95;;;;;9.00;101044.00;;;;5045006;28;20122;-72
2021/05/30 05:22:09;;;;;;;7.25;3.05;;;;;9.00;101030.00;;;;5044420;28;20067;-74
2021/05/30 05:24:35;;;;;;;8.27;2.78;;;;;9.00;101018.00;;;;5044963;28;20519;-71
2021/05/30 05:27:02;;;;;;;7.00;1.70;;;;;8.90;101029.00;;;;5044592;28;20088;-73
2021/05/30 05:29:28;;;;;;;6.00;2.33;;;;;8.70;101037.00;;;;5044615;28;20145;-71
2021/05/30 05:31:55;;;;;;;5.72;1.70;;;;;8.60;101045.00;;;;5045116;28;20059;-72
2021/05/30 05:34:21;;;;;;;6.78;1.75;;;;;8.60;101039.00;;;;5045242;28;20412;-72
2021/05/30 05:36:48;;;;;;;3.15;1.45;;;;;8.60;101035.00;;;;5042776;28;20081;-71
2021/05/30 05:39:14;;;;;;;4.10;1.08;;;;;8.70;101029.00;;;;5044300;28;20099;-71
2021/05/30 05:41:41;;;;;;;9.90;2.25;;;;;8.80;101017.00;;;;5044027;28;20029;-72
2021/05/30 05:44:07;;;;;;;5.97;1.83;;;;;8.90;101018.00;;;;5044397;28;20036;-72
2021/05/30 05:46:34;;;;;;;6.72;1.40;;;;;8.80;101027.00;;;;5044490;28;20653;-73
2021/05/30 05:49:00;;;;;;;3.33;1.23;;;;;8.80;101051.00;;;;5043538;28;20035;-72
2021/05/30 05:51:27;;;;;;;5.60;1.15;;;;;8.90;101036.00;;;;5042631;28;20421;-70
2021/05/30 05:53:54;;;;;;;3.00;1.40;;;;;8.90;101037.00;;;;5043900;28;20111;-71
2021/05/30 05:56:20;;;;;;;6.40;1.30;;;;;8.90;101027.00;;;;5044131;28;20029;-73
2021/05/30 05:58:46;;;;;;;3.30;1.30;;;;;9.00;101025.00;;;;5043198;28;20499;-72
2021/05/30 06:01:13;;;;;;;3.92;1.10;;;;;9.00;101024.00;;;;5043480;28;20111;-71
2021/05/30 06:03:40;;;;;;;4.32;1.05;;;;;8.80;101043.00;;;;5044571;28;20029;-73
2021/05/30 06:06:06;;;;;;;5.65;1.45;;;;;8.80;101038.00;;;;5042932;28;20044;-71
2021/05/30 06:08:33;;;;;;;3.58;1.23;;;;;8.70;101031.00;;;;5043668;28;20032;-72
2021/05/30 06:10:59;;;;;;;3.28;1.30;;;;;8.60;101049.00;;;;5043321;28;20025;-72
2021/05/30 06:13:26;;;;;;;2.03;1.08;;;;;8.60;101031.00;;;;5044216;28;20400;-73
2021/05/30 06:15:53;;;;;;;5.10;1.10;;;;;8.60;101045.00;;;;5043673;28;20040;-73
2021/05/30 06:18:22;;;;;;;4.85;1.17;;;;;8.80;101049.00;;;;5043276;28;20032;-72
2021/05/30 06:20:49;;;;;;;3.13;1.13;;;;;9.00;101048.00;;;;5043142;28;20024;-72
2021/05/30 06:23:16;;;;;;;6.80;1.20;;;;;9.10;101041.00;;;;5043056;28;20033;-73
2021/05/30 06:25:43;;;;;;;4.13;1.20;;;;;9.10;101051.00;;;;5042690;28;20508;-72
2021/05/30 06:28:10;;;;;;;5.10;1.30;;;;;9.00;101033.00;;;;5043273;28;20060;-73
2021/05/30 06:30:39;;;;;;;5.95;1.38;;;;;8.90;101050.00;;;;5044220;28;20029;-73
2021/05/30 06:33:09;;;;;;;12.55;1.65;;;;;8.80;101056.00;;;;5044836;28;20037;-74
2021/05/30 06:35:39;;;;;;;4.10;1.00;;;;;8.70;101044.00;;;;5047763;28;20033;-73
2021/05/30 06:38:06;;;;;;;3.63;1.50;;;;;8.80;101054.00;;;;5047806;28;20120;-71
2021/05/30 06:40:33;;;;;;;4.10;1.08;;;;;8.80;101063.00;;;;5047968;28;20392;-73
2021/05/30 06:43:00;;;;;;;6.25;1.20;;;;;8.70;101054.00;;;;5047048;28;20119;-72
2021/05/30 06:45:26;;;;;;;4.65;1.13;;;;;8.70;101057.00;;;;5046378;28;20563;-72
2021/05/30 06:47:54;;;;;;;5.28;1.30;;;;;8.60;101066.00;;;;5046905;28;20025;-73
2021/05/30 06:50:21;;;;;;;7.07;1.48;;;;;8.50;101052.00;;;;5047367;28;20029;-72
2021/05/30 06:52:48;;;;;;;4.93;1.35;;;;;8.40;101046.00;;;;5047282;28;20053;-73
2021/05/30 06:55:15;;;;;;;1.98;0.85;;;;;8.40;101064.00;;;;5028789;28;20045;-73
2021/05/30 06:57:43;;;;;;;4.30;1.38;;;;;8.40;101072.00;;;;5047532;28;20039;-73
2021/05/30 07:00:10;;;;;;;5.25;1.00;;;;;8.40;101049.00;;;;5047405;28;20025;-74
2021/05/30 07:02:37;;;;;;;3.75;0.93;;;;;8.40;101060.00;;;;5047393;28;20060;-72
2021/05/30 07:05:04;;;;;;;4.03;1.20;;;;;8.40;101046.00;;;;5046584;28;20044;-74
2021/05/30 07:07:30;;;;;;;5.35;0.90;;;;;8.30;101069.00;;;;5047250;28;20025;-72
2021/05/30 07:09:57;;;;;;;6.05;0.90;;;;;8.30;101067.00;;;;5047378;28;20479;-72
2021/05/30 07:12:23;;;;;;;3.85;0.90;;;;;8.30;101051.00;;;;5028229;28;20041;-73
2021/05/30 07:14:50;;;;;;;5.05;1.25;;;;;8.30;101055.00;;;;5046674;28;20021;-73
2021/05/30 07:17:17;;;;;;;4.85;1.10;;;;;8.30;101060.00;;;;5046888;28;20036;-73
2021/05/30 07:19:49;;;;;;;8.75;1.35;;;;;8.20;101088.00;;;;5046994;28;20033;-73
2021/05/30 07:22:16;;;;;;;6.95;1.50;;;;;8.30;101084.00;;;;5046305;28;20044;-71
2021/05/30 07:24:43;;;;;;;5.05;1.00;;;;;8.20;101068.00;;;;5046765;28;20033;-72
2021/05/30 07:27:09;;;;;;;3.78;1.10;;;;;8.20;101085.00;;;;5046912;28;20126;-71
2021/05/30 07:29:36;;;;;;;4.78;1.10;;;;;8.20;101077.00;;;;5046082;28;20407;-72
2021/05/30 07:32:03;;;;;;;3.05;1.10;;;;;8.20;101085.00;;;;5046934;28;20021;-72
2021/05/30 07:34:29;;;;;;;6.47;1.10;;;;;8.20;101077.00;;;;5046745;28;20041;-72
2021/05/30 07:36:56;;;;;;;6.65;1.23;;;;;8.20;101063.00;;;;5045929;28;20048;-73
2021/05/30 07:39:22;;;;;;;5.35;1.08;;;;;8.10;101062.00;;;;5047794;28;20045;-72
2021/05/30 07:41:49;;;;;;;8.05;1.38;;;;;8.00;101065.00;;;;5046171;28;20041;-73
2021/05/30 07:44:15;;;;;;;5.10;1.30;;;;;7.90;101062.00;;;;5046339;28;20025;-72
2021/05/30 07:46:42;;;;;;;6.95;1.10;;;;;7.70;101088.00;;;;5047114;28;20451;-72
2021/05/30 07:49:08;;;;;;;3.42;1.13;;;;;7.60;101083.00;;;;5046218;28;20475;-72
2021/05/30 07:51:35;;;;;;;5.10;1.52;;;;;7.50;101102.00;;;;5046536;28;20493;-71
2021/05/30 07:54:01;;;;;;;3.53;1.17;;;;;7.30;101104.00;;;;5046270;28;20648;-73
2021/05/30 07:56:28;;;;;;;10.40;1.63;;;;;7.20;101117.00;;;;5045699;28;20078;-74
2021/05/30 07:58:56;;;;;;;4.38;0.90;;;;;7.10;101118.00;;;;5045779;28;20555;-72
2021/05/30 08:01:22;;;;;;;6.05;1.23;;;;;7.00;101126.00;;;;5046481;28;20033;-73
2021/05/30 08:03:49;;;;;;;6.15;1.30;;;;;6.90;101122.00;;;;5047195;28;20120;-71
2021/05/30 08:06:15;;;;;;;4.43;1.00;;;;;6.90;101107.00;;;;5028808;28;20523;-73
2021/05/30 08:08:42;;;;;;;3.17;1.27;;;;;6.90;101118.00;;;;5047816;28;20025;-71
2021/05/30 08:11:08;;;;;;;6.10;1.00;;;;;6.70;101116.00;;;;5046060;28;20033;-72
2021/05/30 08:13:35;;;;;;;9.05;1.67;;;;;6.70;101122.00;;;;5046263;28;20388;-71
2021/05/30 08:16:01;;;;;;;5.30;1.05;;;;;6.60;101118.00;;;;5045570;28;20155;-73
2021/05/30 08:18:28;;;;;;;7.53;1.25;;;;;6.50;101113.00;;;;5047078;28;20029;-71
2021/05/30 08:20:54;;;;;;;9.52;1.10;;;;;6.50;101112.00;;;;5045236;28;20025;-71
2021/05/30 08:23:21;;;;;;;5.85;1.00;;;;;6.40;101112.00;;;;5046259;28;20033;-71
2021/05/30 08:25:47;;;;;;;4.85;0.80;;;;;6.30;101113.00;;;;5045526;28;20472;-72
2021/05/30 08:28:14;;;;;;;5.35;1.13;;;;;6.30;101126.00;;;;5046063;28;20377;-72
2021/05/30 08:30:41;;;;;;;9.50;1.20;;;;;6.30;101144.00;;;;5045829;28;20632;-71
2021/05/30 08:33:08;;;;;;;3.97;1.20;;;;;6.20;101122.00;;;;5046388;28;20029;-72
2021/05/30 08:35:35;;;;;;;2.58;1.00;;;;;6.10;101111.00;;;;5046002;28;20069;-72
2021/05/30 08:38:01;;;;;;;3.72;1.30;;;;;6.10;101131.00;;;;5045092;28;20751;-73
2021/05/30 08:40:28;;;;;;;6.40;1.25;;;;;6.10;101132.00;;;;5046496;28;20086;-72
2021/05/30 08:42:55;;;;;;;4.80;1.10;;;;;6.00;101138.00;;;;5045421;28;20460;-71
2021/05/30 08:45:22;;;;;;;4.18;0.98;;;;;6.00;101149.00;;;;5046885;28;20025;-72
2021/05/30 08:47:48;;;;;;;6.45;1.10;;;;;5.90;101158.00;;;;5045734;28;20486;-71
2021/05/30 08:50:16;;;;;;;5.18;1.15;;;;;5.90;101156.00;;;;5045719;28;20055;-73
2021/05/30 08:52:43;;;;;;;12.10;1.40;;;;;6.00;101149.00;;;;5045431;28;20039;-72
2021/05/30 08:55:11;;;;;;;5.28;1.00;;;;;6.00;101164.00;;;;5027096;28;20043;-71
2021/05/30 08:57:38;;;;;;;9.00;1.35;;;;;6.10;101151.00;;;;5044056;28;20796;-71
2021/05/30 09:00:06;;;;;;;5.72;1.13;;;;;6.00;101163.00;;;;5045672;28;20029;-72
2021/05/30 09:02:33;;;;;;;7.07;1.20;;;;;6.00;101173.00;;;;5044884;28;20039;-72
2021/05/30 09:05:08;;;;;;;3.00;1.02;;;;;5.90;101163.00;;;;5045381;28;20025;-73
2021/05/30 09:07:41;;;;;;;4.90;0.88;;;;;5.80;101164.00;;;;5045025;28;20064;-71
2021/05/30 09:10:15;;;;;;;5.18;1.08;;;;;5.80;101180.00;;;;5045868;28;20110;-72
2021/05/30 09:12:42;;;;;;;3.95;1.15;;;;;5.80;101178.00;;;;5045204;28;20399;-72
2021/05/30 09:18:23;;;;;;;4.30;0.80;;;;;5.70;101168.00;;;;5030561;28;20056;-72
2021/05/30 09:20:56;;;;;;;3.63;1.20;;;;;5.70;101177.00;;;;5045527;28;20050;-72
2021/05/30 09:23:29;;;;;;;6.63;1.25;;;;;5.70;101193.00;;;;5044735;28;20033;-73
2021/05/30 09:26:21;;;;;;;9.10;3.63;;;;;5.70;101187.00;;;;5043765;28;20540;-71
2021/05/30 09:29:12;;;;;;;11.98;5.75;;;;;5.70;101186.00;;;;5045323;28;20102;-71
2021/05/30 09:31:55;;;;;;;4.97;2.30;;;;;5.70;101179.00;;;;5045279;28;20036;-71
2021/05/30 09:34:31;;;;;;;3.85;1.40;;;;;5.60;101183.00;;;;5045003;28;20031;-73
2021/05/30 09:36:59;;;;;;;3.63;1.42;;;;;5.60;101192.00;;;;5045098;28;20115;-73
2021/05/30 09:39:41;;;;;;;7.50;1.92;;;;;5.50;101204.00;;;;5045009;28;20037;-73
2021/05/30 09:42:37;;;;;;;6.13;1.92;;;;;5.50;101195.00;;;;5045553;28;20033;-72
2021/05/30 09:45:06;;;;;;;9.38;1.90;;;;;5.70;101184.00;;;;5043730;28;20025;-72
2021/05/30 09:47:41;;;;;;;5.57;2.53;;;;;5.60;101196.00;;;;5045174;28;20021;-72
2021/05/30 09:50:16;;;;;;;2.67;1.35;;;;;5.50;101216.00;;;;5044643;28;20025;-72
2021/05/30 09:53:02;;;;;;;4.15;1.30;;;;;5.60;101229.00;;;;5043625;28;20037;-72
2021/05/30 09:55:33;;;;;;;8.27;2.63;;;;;5.60;101226.00;;;;5026687;28;20087;-73
2021/05/30 09:58:19;;;;;;;7.90;2.42;;;;;5.70;101229.00;;;;5044324;28;20063;-72
2021/05/30 10:00:51;;;;;;;7.47;2.58;;;;;5.60;101230.00;;;;5045177;28;20079;-73
2021/05/30 10:03:19;;;;;;;3.60;1.77;;;;;5.50;101241.00;;;;5044620;28;20114;-71
2021/05/30 10:05:46;;;;;;;2.83;1.23;;;;;5.40;101234.00;;;;5043428;28;20442;-72
2021/05/30 10:08:13;;;;;;;6.53;1.40;;;;;5.50;101234.00;;;;5044315;28;20048;-73
2021/05/30 10:10:40;;;;;;;6.57;1.30;;;;;5.50;101267.00;;;;5045105;28;20153;-73
2021/05/30 10:13:07;;;;;;;5.35;1.30;;;;;5.40;101248.00;;;;5044673;28;20155;-73
2021/05/30 10:15:33;;;;;;;4.20;1.65;;;;;5.40;101238.00;;;;5044763;28;20040;-73
2021/05/30 10:18:10;;;;;;;9.18;1.25;;;;;5.50;101256.00;;;;5043822;28;20499;-72
2021/05/30 10:20:39;;;;;;;1.70;1.17;;;;;5.60;101257.00;;;;5043362;28;20036;-72
2021/05/30 10:23:08;;;;;;;3.75;0.90;;;;;5.60;101264.00;;;;5044283;28;20182;-73
2021/05/30 10:25:38;;;;;;;5.88;1.08;;;;;5.60;101245.00;;;;5043867;28;20072;-72
2021/05/30 10:28:10;;;;;;;4.50;1.20;;;;;5.60;101258.00;;;;5044284;28;20049;-71
2021/05/30 10:30:43;;;;;;;8.40;1.23;;;;;5.50;101242.00;;;;5044367;28;20099;-73
2021/05/30 10:33:27;;;;;;;6.22;0.90;;;;;5.60;101267.00;;;;5044185;28;20059;-73
2021/05/30 10:35:55;;;;;;;4.65;1.27;;;;;5.50;101267.00;;;;5043947;28;20029;-73
2021/05/30 10:38:39;;;;;;;2.33;0.90;;;;;5.70;101266.00;;;;5044335;28;20376;-73
2021/05/30 10:41:23;;;;;;;5.53;1.42;;;;;5.70;101272.00;;;;5045145;28;20174;-73
2021/05/30 10:43:50;;;;;;;2.58;0.93;;;;;5.70;101277.00;;;;5043820;28;20056;-73
2021/05/30 10:46:23;;;;;;;6.18;1.25;;;;;6.30;101225.00;;;;5044423;28;20522;-72
2021/05/30 10:49:10;;;;;;;9.00;1.02;;;;;7.90;101211.00;;;;5044655;28;20391;-72
2021/05/30 10:51:51;;;;;;;2.63;0.82;;;;;8.40;101210.00;;;;5026866;28;20496;-72
2021/05/30 10:54:18;;;;;;;5.95;1.00;;;;;9.30;101192.00;;;;5043975;28;20387;-73
2021/05/30 10:56:57;;;;;;;3.33;0.93;;;;;9.80;101203.00;;;;5044431;28;20033;-73
2021/05/30 10:59:26;;;;;;;3.72;1.17;;;;;10.00;101232.00;;;;5043360;28;20799;-72
2021/05/30 11:01:55;;;;;;;6.18;0.90;;;;;10.00;101203.00;;;;5043570;28;20071;-72
2021/05/30 11:04:30;;;;;;;3.40;0.80;;;;;9.20;101255.00;;;;5043342;28;20037;-71
2021/05/30 11:07:08;;;;;;;5.93;1.80;;;;;9.30;101229.00;;;;5043415;28;20028;-72
2021/05/30 11:09:51;;;;;;;4.07;1.15;;;;;8.70;101243.00;;;;5044249;28;20048;-72
2021/05/30 11:12:22;;;;;;;7.13;1.40;;;;;9.30;101195.00;;;;5043568;28;20033;-72
2021/05/30 11:15:10;;;;;;;3.10;1.38;;;;;11.80;101142.00;;;;5044064;28;20664;-72
2021/05/30 11:17:39;;;;;;;3.67;1.10;;;;;12.30;101122.00;;;;5044578;28;20029;-73
2021/05/30 11:20:11;;;;;;;5.68;1.25;;;;;13.20;101120.00;;;;5045684;28;20598;-73
2021/05/30 11:22:41;;;;;;;2.25;1.10;;;;;14.70;101115.00;;;;5047498;28;20033;-72
2021/05/30 11:25:09;;;;;;;3.25;1.50;;;;;13.40;101116.00;;;;5047171;28;20025;-73
2021/05/30 11:27:55;;;;;;;1.23;0.73;;;;;15.70;101076.00;;;;5047583;28;20546;-73
2021/05/30 11:30:43;;;;;;;2.88;0.98;;;;;16.30;101058.00;;;;5047245;28;20059;-73
2021/05/30 11:33:31;;;;;;;3.28;1.17;;;;;16.50;101039.00;;;;5046653;28;20508;-74
2021/05/30 11:36:00;;;;;;;8.00;1.20;;;;;17.10;101068.00;;;;5047032;28;20132;-72
2021/05/30 11:38:52;;;;;;;3.95;1.20;;;;;18.10;101112.00;;;;5047351;28;20396;-71
2021/05/30 11:41:33;;;;;;;10.50;9.68;;;;;18.20;101121.00;;;;5047179;28;20029;-73
2021/05/30 11:44:26;;;;;;;12.52;1.85;;;;;18.30;101139.00;;;;5047376;28;20563;-72
2021/05/30 11:46:56;;;;;;;4.90;1.30;;;;;17.40;101145.00;;;;5044819;28;20132;-72
2021/05/30 11:49:27;;;;;;;5.80;4.25;;;;;17.90;101135.00;;;;5047361;28;20102;-72
2021/05/30 11:52:11;;;;;;;9.93;2.88;;;;;18.50;101126.00;;;;5046756;28;20032;-72
2021/05/30 11:54:46;;;;;;;4.68;2.17;;;;;18.70;101121.00;;;;5046502;28;20033;-74
2021/05/30 11:57:15;;;;;;;6.40;3.30;;;;;19.30;101146.00;;;;5046061;28;20115;-74
2021/05/30 11:59:56;;;;;;;10.45;4.10;;;;;19.80;101163.00;;;;5046433;28;20029;-72
2021/05/30 12:02:28;;;;;;;6.90;3.22;;;;;19.90;101141.00;;;;5046079;28;20442;-72
2021/05/30 12:05:04;;;;;;;15.20;5.72;;;;;19.70;101174.00;;;;5046498;28;20032;-75
2021/05/30 12:07:30;;;;;;;12.18;3.60;;;;;19.90;101194.00;;;;5046483;28;20025;-72
2021/05/30 12:09:59;;;;;;;13.45;3.47;;;;;19.70;101198.00;;;;5047066;28;20526;-75
2021/05/30 12:12:25;;;;;;;9.07;3.55;;;;;19.50;101156.00;;;;5046436;28;20386;-72
2021/05/30 12:14:52;;;;;;;5.20;3.10;;;;;19.90;101111.00;;;;5046137;28;20032;-75
2021/05/30 12:17:19;;;;;;;11.23;3.47;;;;;20.20;101145.00;;;;5045456;28;20337;-72
2021/05/30 12:19:46;;;;;;;11.13;2.80;;;;;20.40;101165.00;;;;5045749;28;20059;-72
2021/05/30 12:22:27;;;;;;;19.00;3.85;;;;;21.30;101179.00;;;;5046273;28;20044;-72
2021/05/30 12:24:54;;;;;;;;;;;;;23.20;101237.00;;;;5046583;28;20040;-75